Time;durP1;ratioP1;P1;durP2;ratioP2;P2;SDS_P1;SDS_P2;PMS_P1;PMS_P2;Temp;Humidity;BMP_temperature;BMP_pressure;BME280_temperature;BME280_humidity;BME280_pressure;Samples;Min_cycle;Max_cycle;Signal;HPM_P1;HPM_P2
2022/02/02 00:01:36;;;;;;;27.90;12.13;;;7.70;99.90;;;;;;5114027;28;20047;-58
2022/02/02 00:04:05;;;;;;;26.88;17.88;;;7.80;99.90;;;;;;5096930;28;20403;-60
2022/02/02 00:06:39;;;;;;;44.65;25.13;;;7.50;99.90;;;;;;5096615;28;20099;-57
2022/02/02 00:09:10;;;;;;;31.35;23.63;;;6.90;99.90;;;;;;5114484;28;20038;-58
2022/02/02 00:17:13;;;;;;;28.88;25.88;;;5.50;99.90;;;;;;5114506;28;20090;-59
2022/02/02 00:22:18;;;;;;;31.58;23.38;;;5.40;99.90;;;;;;5112964;28;20110;-53
2022/02/02 00:27:15;;;;;;;;;;;5.30;99.90;;;;;;5112470;28;20062;-50
2022/02/02 00:29:47;;;;;;;27.38;18.63;;;5.50;99.90;;;;;;5093708;28;19960;-54
2022/02/02 00:34:41;;;;;;;23.73;17.75;;;5.50;99.90;;;;;;5091680;28;20024;-54
2022/02/02 00:37:06;;;;;;;23.83;18.10;;;5.60;99.90;;;;;;5091170;28;20051;-56
2022/02/02 00:39:32;;;;;;;28.83;17.90;;;5.70;99.90;;;;;;5091729;28;20028;-54
2022/02/02 00:41:58;;;;;;;31.45;16.98;;;5.80;99.90;;;;;;5073018;28;20031;-55
2022/02/02 00:44:25;;;;;;;34.33;15.95;;;5.90;99.90;;;;;;5079610;28;20035;-52
2022/02/02 00:46:52;;;;;;;34.45;16.73;;;6.20;99.90;;;;;;5093766;28;20107;-52
2022/02/02 00:49:18;;;;;;;29.23;14.98;;;6.20;99.90;;;;;;5094340;28;20024;-52
2022/02/02 00:51:46;;;;;;;27.98;15.43;;;6.30;99.90;;;;;;5093775;28;20039;-53
2022/02/02 00:54:30;;;;;;;28.60;14.20;;;;;;;;;;5094002;28;20020;-54
2022/02/02 00:56:56;;;;;;;28.67;15.23;;;;;;;;;;5076120;28;20020;-53
2022/02/02 00:59:22;;;;;;;37.13;13.25;;;;;;;;;;5094185;28;20026;-51
2022/02/02 01:01:49;;;;;;;27.90;12.25;;;;;;;;;;5095070;28;20040;-52
2022/02/02 01:04:15;;;;;;;37.70;12.90;;;;;;;;;;5075678;28;20038;-51
2022/02/02 01:06:55;;;;;;;35.67;12.43;;;;;;;;;;5093990;28;20069;-51
2022/02/02 01:17:44;;;;;;;;;;;;;;;;;;;;;
2022/02/02 01:19:57;;;;;;;27.92;10.57;;;;;;;;;;5093813;28;20028;-55
2022/02/02 01:27:46;;;;;;;40.53;12.90;;;;;;;;;;5094189;28;20434;-53
2022/02/02 01:27:54;;;;;;;28.65;11.48;;;;;;;;;;5093497;28;20515;-50
2022/02/02 01:30:23;;;;;;;27.80;9.95;;;6.40;99.90;;;;;;5075450;28;20031;-54
2022/02/02 01:32:48;;;;;;;29.42;9.43;;;7.10;99.90;;;;;;5093623;28;20020;-53
2022/02/02 01:35:16;;;;;;;26.33;10.13;;;7.10;99.90;;;;;;5093187;28;20107;-52
2022/02/02 01:37:44;;;;;;;37.17;11.05;;;7.20;99.90;;;;;;5075699;28;20032;-52
2022/02/02 01:40:33;;;;;;;21.30;8.70;;;7.20;99.90;;;;;;5093420;28;20055;-54
2022/02/02 01:43:07;;;;;;;27.67;10.63;;;7.20;99.90;;;;;;5093205;28;20272;-50
2022/02/02 01:45:41;;;;;;;29.65;9.93;;;7.10;99.90;;;;;;5092994;28;20111;-52
2022/02/02 01:56:10;;;;;;;23.38;11.05;;;7.10;99.90;;;;;;5092410;28;20123;-52
2022/02/02 01:58:58;;;;;;;25.48;22.70;;;;;;;;;;5093051;28;20111;-51
2022/02/02 02:01:24;;;;;;;25.58;23.27;;;;;;;;;;5074548;28;20040;-56
2022/02/02 02:03:50;;;;;;;29.48;26.60;;;;;;;;;;5092500;28;20476;-53
2022/02/02 02:06:18;;;;;;;28.20;25.60;;;;;;;;;;5092650;28;20031;-52
2022/02/02 02:08:44;;;;;;;23.73;20.93;;;;;;;;;;5092828;28;20474;-55
2022/02/02 02:11:16;;;;;;;18.63;15.98;;;;;;;;;;5092836;28;20468;-50
2022/02/02 02:16:27;;;;;;;15.93;13.25;;;;;;;;;;5092940;28;20056;-53
2022/02/02 02:18:53;;;;;;;23.55;13.95;;;;;;;;;;5092790;28;20028;-51
2022/02/02 02:21:19;;;;;;;25.55;14.98;;;;;;;;;;5074462;28;20035;-57
2022/02/02 02:23:48;;;;;;;26.60;14.13;;;;;;;;;;5092710;28;20043;-54
2022/02/02 02:26:21;;;;;;;24.33;13.77;;;;;;;;;;5074314;28;20119;-54
2022/02/02 02:56:28;;;;;;;25.75;12.10;;;;;;;;;;5092497;28;20089;-53
2022/02/02 02:59:05;;;;;;;26.25;10.93;;;;;;;;;;5074191;28;20028;-53
2022/02/02 03:32:02;;;;;;;23.67;9.07;;;;;;;;;;5095820;28;20034;-50
2022/02/02 03:51:30;;;;;;;28.48;9.88;;;7.10;99.90;;;;;;5095871;28;20113;-52
2022/02/02 03:59:01;;;;;;;;;;;;;;;;;;;;;
2022/02/02 04:06:17;;;;;;;27.88;8.88;;;7.10;99.90;;;;;;5095326;28;20024;-53
2022/02/02 04:08:43;;;;;;;24.80;7.57;;;7.10;99.90;;;;;;5095103;28;20024;-51
2022/02/02 04:11:53;;;;;;;27.10;9.50;;;7.10;99.90;;;;;;5095381;28;20039;-54
2022/02/02 04:38:59;;;;;;;30.27;8.98;;;7.00;99.90;;;;;;5095017;28;20132;-51
2022/02/02 04:57:36;;;;;;;29.88;7.97;;;7.10;99.90;;;;;;5094274;28;20024;-51
2022/02/02 05:08:19;;;;;;;30.63;9.93;;;7.00;99.90;;;;;;5093903;28;20032;-51
2022/02/02 05:53:37;;;;;;;20.13;7.65;;;6.70;99.90;;;;;;5092802;28;20027;-54
2022/02/02 05:56:05;;;;;;;19.83;7.28;;;6.70;99.90;;;;;;5092567;28;20396;-53
2022/02/02 05:58:33;;;;;;;23.75;7.47;;;6.70;99.90;;;;;;5092720;28;20031;-54
2022/02/02 06:01:00;;;;;;;20.52;7.70;;;6.70;99.90;;;;;;5092274;28;20040;-56
2022/02/02 06:03:42;;;;;;;24.90;8.98;;;6.60;99.90;;;;;;5092399;28;20081;-51
2022/02/02 06:06:08;;;;;;;23.38;7.25;;;6.60;99.90;;;;;;5092126;28;20058;-52
2022/02/02 06:08:34;;;;;;;20.50;7.07;;;6.60;99.90;;;;;;5092274;28;20501;-53
2022/02/02 06:11:04;;;;;;;22.92;7.25;;;6.60;99.90;;;;;;5092936;28;20020;-50
2022/02/02 06:13:49;;;;;;;19.02;7.07;;;6.60;99.90;;;;;;5074480;28;20131;-52
2022/02/02 06:16:15;;;;;;;19.25;7.60;;;6.60;99.90;;;;;;5092463;28;20028;-57
2022/02/02 06:18:41;;;;;;;21.67;7.43;;;6.60;99.90;;;;;;5092008;28;20042;-56
2022/02/02 06:21:09;;;;;;;17.15;6.93;;;6.50;99.90;;;;;;5092525;28;20050;-54
2022/02/02 06:23:42;;;;;;;25.43;7.23;;;6.50;99.90;;;;;;5092709;28;20043;-58
2022/02/02 06:26:16;;;;;;;19.23;7.80;;;6.50;99.90;;;;;;5092623;28;20031;-50
2022/02/02 06:28:45;;;;;;;25.52;7.88;;;6.50;99.90;;;;;;5092292;28;20028;-54
2022/02/02 06:31:14;;;;;;;24.55;9.32;;;6.50;99.90;;;;;;5091640;28;20552;-54
2022/02/02 06:33:41;;;;;;;21.58;7.88;;;6.50;99.90;;;;;;5092070;28;20032;-55
2022/02/02 06:36:11;;;;;;;15.68;6.18;;;6.50;99.90;;;;;;5092217;28;20503;-51
2022/02/02 06:38:38;;;;;;;16.30;7.57;;;6.40;99.90;;;;;;5091941;28;20032;-53
2022/02/02 06:41:07;;;;;;;22.58;7.25;;;6.50;99.90;;;;;;5091784;28;20206;-54
2022/02/02 06:43:33;;;;;;;23.65;7.28;;;6.50;99.90;;;;;;5091323;28;20032;-52
2022/02/02 06:46:01;;;;;;;16.67;7.00;;;6.50;99.90;;;;;;5091355;28;20439;-51
2022/02/02 06:48:29;;;;;;;21.95;6.93;;;6.50;99.90;;;;;;5091520;28;20028;-51
2022/02/02 06:51:11;;;;;;;29.60;8.43;;;6.50;99.90;;;;;;5072895;28;20032;-53
2022/02/02 06:53:48;;;;;;;21.85;8.00;;;6.40;99.90;;;;;;5091603;28;20101;-55
2022/02/02 06:56:53;;;;;;;20.33;7.80;;;6.40;99.90;;;;;;5092827;28;20028;-51
2022/02/02 07:02:39;;;;;;;22.92;8.07;;;6.40;99.90;;;;;;5106856;22;20499;-51
2022/02/02 07:34:27;;;;;;;22.13;6.55;;;6.50;99.90;;;;;;5112033;28;20076;-54
2022/02/02 07:36:58;;;;;;;18.65;6.45;;;6.50;99.90;;;;;;5097334;28;20115;-53
2022/02/02 07:39:25;;;;;;;22.58;6.70;;;6.50;99.90;;;;;;5112731;28;20020;-51
2022/02/02 07:41:57;;;;;;;18.42;6.22;;;6.50;99.90;;;;;;5112534;28;20020;-52
2022/02/02 07:44:27;;;;;;;20.50;6.72;;;6.50;99.90;;;;;;5097805;28;20076;-48
2022/02/02 07:46:55;;;;;;;22.80;7.18;;;6.40;99.90;;;;;;5091697;28;20024;-55
2022/02/02 07:49:29;;;;;;;21.48;7.07;;;6.40;99.90;;;;;;5091607;28;20020;-53
2022/02/02 07:51:56;;;;;;;15.65;6.30;;;6.40;99.90;;;;;;5091538;28;20031;-55
2022/02/02 07:54:27;;;;;;;23.65;7.18;;;6.30;99.90;;;;;;5091331;28;20541;-51
2022/02/02 07:56:53;;;;;;;15.55;6.60;;;6.30;99.90;;;;;;5094999;28;20027;-52
2022/02/02 07:59:25;;;;;;;20.05;7.05;;;6.30;99.90;;;;;;5095059;28;20012;-49
2022/02/02 08:01:52;;;;;;;21.42;6.35;;;6.30;99.90;;;;;;5094553;28;20399;-50
2022/02/02 08:04:21;;;;;;;26.23;7.05;;;6.40;99.90;;;;;;5094072;28;20111;-49
2022/02/02 08:06:53;;;;;;;21.13;6.90;;;6.30;99.90;;;;;;5095085;28;20020;-50
2022/02/02 08:09:45;;;;;;;20.30;6.15;;;6.30;99.90;;;;;;5095150;28;20455;-51
2022/02/02 08:12:13;;;;;;;24.40;7.00;;;6.30;99.90;;;;;;5094465;28;20036;-50
2022/02/02 08:14:41;;;;;;;29.23;8.35;;;6.30;99.90;;;;;;5094660;28;20074;-53
2022/02/02 08:17:06;;;;;;;19.95;7.68;;;6.40;99.90;;;;;;5077091;28;20107;-52
2022/02/02 08:19:32;;;;;;;19.50;6.45;;;6.40;99.90;;;;;;5095383;28;20451;-54
2022/02/02 08:21:58;;;;;;;25.33;7.47;;;6.40;99.90;;;;;;5095002;28;20028;-54
2022/02/02 08:24:26;;;;;;;29.45;8.50;;;6.40;99.90;;;;;;5075691;28;20032;-57
2022/02/02 08:26:52;;;;;;;28.70;8.35;;;6.40;99.90;;;;;;5094525;28;20059;-51
2022/02/02 08:29:18;;;;;;;20.20;7.57;;;6.40;99.90;;;;;;5094835;28;20056;-52
2022/02/02 08:31:44;;;;;;;34.83;7.93;;;6.30;99.90;;;;;;5109793;28;20109;-53
2022/02/02 08:34:11;;;;;;;23.52;6.70;;;6.40;99.90;;;;;;5114279;28;20049;-53
2022/02/02 08:36:39;;;;;;;17.80;6.03;;;6.50;99.90;;;;;;5114956;28;20023;-50
2022/02/02 08:41:54;;;;;;;24.83;7.95;;;6.50;99.90;;;;;;5114672;28;20046;-55
2022/02/02 08:44:27;;;;;;;18.25;6.00;;;6.50;99.90;;;;;;5095779;28;20034;-57
2022/02/02 08:46:59;;;;;;;27.17;8.77;;;6.60;99.90;;;;;;5114818;28;20488;-54
2022/02/02 08:49:26;;;;;;;20.98;7.93;;;6.60;99.90;;;;;;5114389;28;20046;-51
2022/02/02 08:51:52;;;;;;;19.30;6.57;;;6.60;99.90;;;;;;5114362;28;20020;-57
2022/02/02 09:02:06;;;;;;;32.80;7.32;;;6.60;99.90;;;;;;5094353;28;20024;-51
2022/02/02 09:07:15;;;;;;;22.35;6.78;;;6.80;99.90;;;;;;5094188;28;20544;-53
2022/02/02 09:20:48;;;;;;;25.83;7.60;;;7.20;99.90;;;;;;5094715;28;20448;-60
2022/02/02 09:33:55;;;;;;;;;;;;;;;;;;;;;
2022/02/02 09:36:22;;;;;;;20.52;6.40;;;7.40;99.90;;;;;;5093108;28;20544;-58
2022/02/02 09:38:50;;;;;;;24.52;7.78;;;7.50;99.90;;;;;;5074992;28;20031;-56
2022/02/02 09:41:43;;;;;;;20.35;7.13;;;7.60;99.90;;;;;;5093526;28;20024;-56
2022/02/02 09:44:13;;;;;;;28.15;8.90;;;7.60;99.90;;;;;;5074722;28;20536;-53
2022/02/02 09:46:56;;;;;;;23.98;6.53;;;7.70;99.90;;;;;;5093312;28;20020;-54
2022/02/02 09:51:59;;;;;;;19.13;7.22;;;7.90;99.90;;;;;;5093257;28;20510;-58
2022/02/02 10:04:57;;;;;;;42.80;10.55;;;8.30;99.90;;;;;;5092405;28;20016;-55
2022/02/02 10:10:34;;;;;;;24.20;7.28;;;8.20;99.90;;;;;;5092855;28;20106;-56
2022/02/02 10:15:33;;;;;;;20.42;6.78;;;8.20;99.90;;;;;;5092421;28;20117;-61
2022/02/02 10:18:12;;;;;;;27.75;7.85;;;8.30;99.90;;;;;;5092694;28;20024;-59
2022/02/02 10:20:38;;;;;;;20.90;7.45;;;8.30;99.90;;;;;;5092797;28;20038;-60
2022/02/02 10:23:05;;;;;;;21.75;7.97;;;8.30;99.90;;;;;;5093259;28;20032;-60
2022/02/02 10:25:38;;;;;;;20.05;7.00;;;8.40;99.90;;;;;;5074532;28;20411;-58
2022/02/02 10:28:13;;;;;;;18.10;7.63;;;8.40;99.90;;;;;;5093503;28;20024;-54
2022/02/02 10:30:43;;;;;;;20.58;7.15;;;8.40;99.90;;;;;;5074370;28;20020;-50
2022/02/02 10:33:19;;;;;;;21.90;6.85;;;8.30;99.90;;;;;;5092719;28;20468;-54
2022/02/02 10:35:47;;;;;;;28.35;7.75;;;8.30;99.90;;;;;;5091845;28;20020;-55
2022/02/02 10:38:16;;;;;;;20.08;7.38;;;8.20;99.90;;;;;;5092034;28;20499;-54
2022/02/02 10:46:08;;;;;;;17.40;6.95;;;8.10;99.90;;;;;;5077137;28;20024;-51
2022/02/02 10:48:40;;;;;;;26.50;8.25;;;8.20;99.90;;;;;;5072050;28;20028;-56
2022/02/02 10:51:16;;;;;;;19.60;7.10;;;8.60;99.90;;;;;;5054142;28;20064;-51
2022/02/02 10:56:54;;;;;;;24.40;7.75;;;9.00;99.90;;;;;;5073150;28;20107;-53
2022/02/02 10:59:33;;;;;;;17.83;6.72;;;9.00;99.90;;;;;;5073339;28;20031;-54
2022/02/02 11:07:15;;;;;;;17.30;6.80;;;8.80;99.90;;;;;;5094004;28;20039;-55
2022/02/02 11:09:44;;;;;;;24.33;7.85;;;8.70;99.90;;;;;;5092686;28;20024;-52
2022/02/02 11:12:11;;;;;;;24.80;8.73;;;8.60;99.90;;;;;;5074478;28;20070;-55
2022/02/02 11:14:42;;;;;;;25.08;7.28;;;8.80;99.90;;;;;;5093712;28;20044;-52
2022/02/02 11:17:19;;;;;;;21.13;7.75;;;9.10;99.90;;;;;;5094149;28;20029;-57
2022/02/02 11:19:49;;;;;;;16.17;6.82;;;8.80;99.90;;;;;;5094735;28;20451;-55
2022/02/02 11:22:32;;;;;;;21.00;7.75;;;8.60;99.90;;;;;;5095108;28;20491;-53
2022/02/02 11:25:03;;;;;;;20.20;6.72;;;8.50;99.90;;;;;;5093497;28;20027;-53
2022/02/02 11:27:35;;;;;;;22.30;9.20;;;9.10;99.90;;;;;;5092492;28;20032;-55
2022/02/02 11:30:28;;;;;;;21.65;8.63;;;9.20;99.90;;;;;;5093283;28;20024;-55
2022/02/02 11:32:55;;;;;;;25.35;7.43;;;9.00;99.90;;;;;;5095467;28;20024;-52
2022/02/02 11:35:57;;;;;;;24.77;7.65;;;9.00;99.90;;;;;;5095146;28;20032;-56
2022/02/02 11:38:30;;;;;;;26.92;8.18;;;9.20;99.90;;;;;;5095434;28;20028;-55
2022/02/02 11:47:06;;;;;;;24.67;7.35;;;8.60;99.90;;;;;;5096275;28;20024;-52
2022/02/02 11:49:57;;;;;;;23.67;9.00;;;;;;;;;;5077631;28;20063;-57
2022/02/02 11:52:29;;;;;;;20.60;7.63;;;;;;;;;;5095184;28;20031;-56
2022/02/02 11:54:55;;;;;;;22.92;7.82;;;8.90;99.90;;;;;;5094765;28;20020;-56
2022/02/02 11:57:26;;;;;;;15.52;6.43;;;10.30;99.90;;;;;;5095516;28;20052;-54
2022/02/02 12:00:11;;;;;;;18.00;7.38;;;10.30;99.90;;;;;;5095757;28;20039;-59
2022/02/02 12:08:29;;;;;;;23.75;7.35;;;9.50;99.90;;;;;;5095562;28;20024;-56
2022/02/02 12:57:26;;;;;;;17.70;8.52;;;13.20;99.90;;;;;;5094946;28;20046;-54
2022/02/02 13:00:22;;;;;;;16.17;7.93;;;13.10;99.90;;;;;;5094877;28;20024;-60
2022/02/02 13:02:46;;;;;;;18.50;8.13;;;12.00;99.90;;;;;;5121976;22;20131;-56
2022/02/02 13:05:12;;;;;;;20.42;8.05;;;11.70;99.90;;;;;;5095950;28;20076;-59
2022/02/02 13:07:41;;;;;;;17.75;8.70;;;12.10;99.90;;;;;;5114297;28;20039;-59
2022/02/02 13:10:07;;;;;;;;;;;12.40;99.90;;;;;;5114185;28;20035;-62
2022/02/02 13:12:40;;;;;;;25.10;8.95;;;12.40;99.90;;;;;;5112720;28;19911;-56
2022/02/02 13:15:34;;;;;;;18.63;8.32;;;11.50;99.90;;;;;;5096008;28;20031;-56
2022/02/02 13:23:32;;;;;;;16.17;7.93;;;11.30;99.90;;;;;;5113714;28;20119;-58
2022/02/02 13:26:03;;;;;;;18.30;8.63;;;11.00;99.90;;;;;;5094990;28;20475;-55
2022/02/02 13:28:48;;;;;;;17.88;8.68;;;11.30;99.90;;;;;;5095864;28;20039;-57
2022/02/02 13:31:23;;;;;;;19.40;9.05;;;11.90;99.90;;;;;;5113917;28;20402;-58
2022/02/02 13:34:06;;;;;;;16.58;8.73;;;12.20;99.90;;;;;;5113280;28;20491;-59
2022/02/02 13:42:43;;;;;;;19.63;8.18;;;11.50;99.90;;;;;;5101952;28;20024;-63
2022/02/02 14:01:26;;;;;;;;;;;;;;;;;;;;;
2022/02/02 14:11:51;;;;;;;16.70;9.00;;;13.00;99.90;;;;;;5100237;28;20031;-63
2022/02/02 14:33:27;;;;;;;18.27;8.60;;;12.50;99.90;;;;;;5092525;28;20042;-63
2022/02/02 14:35:57;;;;;;;17.08;8.60;;;13.20;99.90;;;;;;5094186;28;20103;-61
2022/02/02 14:38:22;;;;;;;19.73;8.95;;;12.70;99.90;;;;;;5076656;28;20032;-63
2022/02/02 14:43:46;;;;;;;15.88;8.60;;;11.70;99.90;;;;;;5094636;28;20431;-58
2022/02/02 14:46:12;;;;;;;17.73;8.40;;;12.00;99.90;;;;;;4785191;28;10001183;-63
2022/02/02 14:48:45;;;;;;;;;;;12.70;99.90;;;;;;5091482;28;20236;-62
2022/02/02 14:51:26;;;;;;;17.50;8.65;;;12.90;99.90;;;;;;5109518;28;20003;-62
2022/02/02 15:28:45;;;;;;;16.87;8.07;;;11.90;99.90;;;;;;5101111;28;20028;-61
2022/02/02 15:31:11;;;;;;;18.10;8.77;;;11.70;99.90;;;;;;5093066;28;20024;-62
2022/02/02 15:33:37;;;;;;;16.27;8.63;;;11.40;99.90;;;;;;5093874;28;20442;-64
2022/02/02 15:36:55;;;;;;;17.98;8.38;;;10.40;99.90;;;;;;5094018;28;20484;-62
2022/02/02 15:38:52;;;;;;;16.65;8.25;;;10.00;99.90;;;;;;5094420;28;20322;-61
2022/02/02 15:41:28;;;;;;;20.02;7.93;;;9.80;99.90;;;;;;5084080;28;20046;-62
2022/02/02 16:03:06;;;;;;;17.15;8.38;;;8.60;99.90;;;;;;5102290;28;20038;-59
2022/02/02 16:05:49;;;;;;;21.13;7.90;;;8.50;99.90;;;;;;5101902;28;20460;-62
2022/02/02 16:08:19;;;;;;;20.92;7.90;;;8.30;99.90;;;;;;5103087;28;20132;-64
2022/02/02 16:16:10;;;;;;;19.23;7.95;;;8.00;99.90;;;;;;5102521;28;20024;-64
2022/02/02 16:37:15;;;;;;;17.98;7.63;;;7.20;99.90;;;;;;5114373;28;20106;-63
2022/02/02 16:39:52;;;;;;;;;;;7.20;99.90;;;;;;5097895;28;20452;-64
2022/02/02 16:45:04;;;;;;;16.80;6.90;;;7.10;99.90;;;;;;5114268;28;20035;-65
2022/02/02 16:47:30;;;;;;;15.83;7.00;;;7.10;99.90;;;;;;5114453;28;20076;-63
2022/02/02 16:49:55;;;;;;;19.70;7.60;;;7.00;99.90;;;;;;5097582;28;20053;-65
2022/02/02 16:52:24;;;;;;;21.67;7.70;;;6.90;99.90;;;;;;5114130;28;20486;-66
2022/02/02 16:54:50;;;;;;;23.85;7.80;;;6.90;99.90;;;;;;5112273;28;20043;-64
2022/02/02 17:30:55;;;;;;;23.60;7.63;;;6.50;99.90;;;;;;5111594;28;20103;-59
2022/02/02 17:32:58;;;;;;;23.05;8.25;;;6.50;99.90;;;;;;5101798;28;20569;-65
2022/02/02 17:38:06;;;;;;;20.98;8.00;;;6.40;99.90;;;;;;5110569;28;20035;-66
2022/02/02 18:21:11;;;;;;;23.98;9.60;;;5.60;99.90;;;;;;5109422;28;20055;-64
2022/02/02 18:23:50;;;;;;;27.00;10.00;;;5.50;99.90;;;;;;5110230;28;20027;-64
2022/02/02 18:26:24;;;;;;;30.90;13.13;;;5.50;99.90;;;;;;5091647;28;20110;-65
2022/02/02 18:36:35;;;;;;;23.05;8.85;;;5.30;99.90;;;;;;5110562;28;20058;-63
2022/02/02 19:03:12;;;;;;;21.33;8.80;;;5.20;99.90;;;;;;5091042;23;19993;-57
2022/02/02 19:38:46;;;;;;;20.40;9.10;;;5.20;99.90;;;;;;5067046;28;20089;-56
2022/02/02 20:05:21;;;;;;;20.42;8.60;;;5.40;99.90;;;;;;5071515;28;20123;-55
2022/02/02 20:08:17;;;;;;;;;;;;;;;;;;;;;
2022/02/02 20:10:38;;;;;;;19.00;8.10;;;5.60;99.90;;;;;;5071654;28;20050;-56
2022/02/02 20:13:04;;;;;;;27.67;9.80;;;5.60;99.90;;;;;;5053275;28;20032;-57
2022/02/02 20:15:38;;;;;;;22.67;8.45;;;5.70;99.90;;;;;;5053121;28;20059;-56
2022/02/02 20:18:04;;;;;;;24.15;8.32;;;5.70;99.90;;;;;;5071293;28;20107;-57
2022/02/02 20:20:33;;;;;;;23.73;8.30;;;5.70;99.90;;;;;;5053371;28;20024;-56
2022/02/02 20:23:02;;;;;;;26.98;9.15;;;5.70;99.90;;;;;;5071152;28;20056;-59
2022/02/02 20:25:28;;;;;;;23.63;8.73;;;5.70;99.90;;;;;;5071460;28;20020;-54
2022/02/02 20:28:03;;;;;;;23.85;8.02;;;5.60;99.90;;;;;;5071543;28;20454;-57
2022/02/02 20:30:29;;;;;;;20.75;8.50;;;5.60;99.90;;;;;;5070995;28;21348;-60
2022/02/02 20:32:55;;;;;;;25.85;9.60;;;5.60;99.90;;;;;;5071292;28;20028;-57
2022/02/02 20:35:21;;;;;;;28.65;9.77;;;5.50;99.90;;;;;;5070720;28;20437;-55
2022/02/02 20:37:46;;;;;;;21.10;9.52;;;5.50;99.90;;;;;;5070952;28;20441;-54
2022/02/02 20:40:13;;;;;;;21.17;9.18;;;5.50;99.90;;;;;;5053001;28;20431;-55
2022/02/02 21:07:06;;;;;;;23.40;10.82;;;5.40;99.90;;;;;;5070397;28;20039;-58
2022/02/02 21:14:39;;;;;;;24.60;9.45;;;5.50;99.90;;;;;;5070001;28;20493;-59
2022/02/02 21:17:07;;;;;;;26.05;11.30;;;5.60;99.90;;;;;;5070815;28;20111;-52
2022/02/02 21:19:44;;;;;;;20.98;8.77;;;5.70;99.90;;;;;;5070226;28;20745;-59
2022/02/02 21:22:11;;;;;;;22.90;9.00;;;5.70;99.90;;;;;;5070070;28;20078;-58
2022/02/02 21:24:54;;;;;;;21.05;9.02;;;5.70;99.90;;;;;;5069597;28;20025;-52
2022/02/02 21:27:25;;;;;;;;;;;;;;;;;;;;;
2022/02/02 21:29:46;;;;;;;25.35;9.70;;;5.70;99.90;;;;;;5070030;28;20079;-60
2022/02/02 21:32:12;;;;;;;24.90;9.23;;;5.70;99.90;;;;;;5070452;28;20036;-51
2022/02/02 21:34:39;;;;;;;28.52;12.10;;;5.70;99.90;;;;;;5070106;28;20161;-53
2022/02/02 21:37:06;;;;;;;34.92;11.18;;;5.70;99.90;;;;;;5051850;28;20032;-57
2022/02/02 21:39:35;;;;;;;31.40;10.13;;;5.60;99.90;;;;;;5069674;28;20039;-57
2022/02/02 21:42:01;;;;;;;25.13;9.85;;;5.60;99.90;;;;;;5069648;28;20039;-59
2022/02/02 21:44:26;;;;;;;26.35;10.07;;;5.60;99.90;;;;;;5050838;28;20020;-54
2022/02/02 21:46:53;;;;;;;25.35;9.13;;;5.70;99.90;;;;;;5051345;28;20032;-53
2022/02/02 21:49:21;;;;;;;22.92;9.07;;;5.70;99.90;;;;;;5069417;28;20078;-59
2022/02/02 21:52:09;;;;;;;24.63;10.05;;;5.70;99.90;;;;;;5069578;28;20495;-54
2022/02/02 21:54:38;;;;;;;24.63;9.75;;;5.80;99.90;;;;;;5057747;28;20034;-57
2022/02/02 21:57:05;;;;;;;;;;;;;;;;;;5071618;28;20028;-54
2022/02/02 21:59:31;;;;;;;26.67;10.88;;;;;;;;;;5070778;28;19905;-55
2022/02/02 22:01:57;;;;;;;30.08;11.18;;;;;;;;;;5070479;28;20025;-56
2022/02/02 22:04:23;;;;;;;24.30;10.52;;;;;;;;;;5083850;28;20028;-56
2022/02/02 22:06:49;;;;;;;37.47;10.85;;;;;;;;;;5086532;28;20055;-54
2022/02/02 22:09:15;;;;;;;28.60;11.65;;;;;;;;;;5072771;28;20020;-55
2022/02/02 22:11:41;;;;;;;27.90;10.63;;;;;;;;;;5072277;28;20666;-55
2022/02/02 22:14:14;;;;;;;23.75;10.25;;;;;;;;;;5071211;28;20035;-56
2022/02/02 22:16:42;;;;;;;26.80;10.57;;;;;;;;;;5071452;28;20016;-59
2022/02/02 22:19:08;;;;;;;23.30;10.02;;;;;;;;;;5054017;28;20063;-55
2022/02/02 22:21:34;;;;;;;29.33;12.05;;;;;;;;;;5071973;28;20021;-58
2022/02/02 22:24:02;;;;;;;29.70;11.55;;;;;;;;;;5053732;28;20028;-57
2022/02/02 22:26:28;;;;;;;26.02;12.43;;;;;;;;;;5053867;28;20107;-54
2022/02/02 22:28:55;;;;;;;31.02;12.35;;;;;;;;;;5071807;28;20031;-56
2022/02/02 22:31:21;;;;;;;23.35;11.23;;;;;;;;;;5071999;28;20025;-56
2022/02/02 22:33:47;;;;;;;33.50;11.65;;;;;;;;;;5067882;28;20119;-52
2022/02/02 22:36:13;;;;;;;34.20;11.00;;;5.80;99.90;;;;;;5050511;28;20031;-56
2022/02/02 22:38:41;;;;;;;25.95;11.95;;;6.60;99.90;;;;;;5048851;28;20392;-51
2022/02/02 22:41:08;;;;;;;23.70;10.50;;;6.50;99.90;;;;;;5069574;28;20123;-57
2022/02/02 22:43:34;;;;;;;30.98;12.82;;;6.40;99.90;;;;;;5069285;28;20099;-54
2022/02/02 22:46:00;;;;;;;28.02;11.73;;;6.40;99.90;;;;;;5071751;28;20035;-56
2022/02/02 22:48:30;;;;;;;26.55;11.43;;;6.40;99.90;;;;;;5066900;28;20029;-53
2022/02/02 22:50:55;;;;;;;34.67;12.75;;;6.40;99.90;;;;;;5069924;28;20446;-55
2022/02/02 22:53:24;;;;;;;33.58;11.85;;;6.40;99.90;;;;;;5052342;28;20107;-57
2022/02/02 22:55:49;;;;;;;;;;;6.40;99.90;;;;;;5071360;28;20051;-54
2022/02/02 22:58:15;;;;;;;29.38;12.70;;;6.40;99.90;;;;;;5051666;28;19956;-53
2022/02/02 23:00:41;;;;;;;32.95;14.32;;;6.40;99.90;;;;;;5071979;28;20108;-56
2022/02/02 23:03:15;;;;;;;33.00;12.50;;;6.40;99.90;;;;;;5070779;28;20054;-57
2022/02/02 23:05:47;;;;;;;29.85;13.18;;;6.40;99.90;;;;;;5072077;28;20082;-54
2022/02/02 23:08:15;;;;;;;30.90;13.77;;;6.50;99.90;;;;;;5071531;28;20029;-57
2022/02/02 23:10:42;;;;;;;29.30;15.50;;;6.40;99.90;;;;;;5070642;28;20029;-57
2022/02/02 23:13:10;;;;;;;31.90;14.63;;;6.40;99.90;;;;;;5071518;28;20021;-55
2022/02/02 23:18:18;;;;;;;43.40;15.60;;;6.40;99.90;;;;;;4720616;28;10001002;-54
2022/02/02 23:20:48;;;;;;;38.05;16.73;;;6.50;99.90;;;;;;5048381;28;20668;-54
2022/02/02 23:23:19;;;;;;;35.38;17.73;;;6.50;99.90;;;;;;5048374;28;20029;-55
2022/02/02 23:25:47;;;;;;;35.78;15.30;;;6.50;99.90;;;;;;5050829;28;20035;-54
2022/02/02 23:28:13;;;;;;;40.53;17.80;;;;;;;;;;5052115;28;20102;-54
2022/02/02 23:30:40;;;;;;;34.42;16.98;;;;;;;;;;5052387;28;20055;-56
2022/02/02 23:33:06;;;;;;;35.80;17.85;;;;;;;;;;5052324;28;20108;-52
2022/02/02 23:35:32;;;;;;;39.58;17.13;;;;;;;;;;5034209;28;20102;-53
2022/02/02 23:37:59;;;;;;;35.42;16.50;;;;;;;;;;5052391;28;20481;-51
2022/02/02 23:40:29;;;;;;;41.67;18.33;;;;;;;;;;5052623;28;20565;-55
2022/02/02 23:42:55;;;;;;;47.55;17.45;;;;;;;;;;5052524;28;20029;-57
2022/02/02 23:45:23;;;;;;;36.22;18.38;;;;;;;;;;5051969;28;20029;-56
2022/02/02 23:47:49;;;;;;;43.28;18.40;;;;;;;;;;5052186;28;20025;-56
2022/02/02 23:50:18;;;;;;;41.72;22.85;;;;;;;;;;5052418;28;20071;-52
2022/02/02 23:52:52;;;;;;;38.13;19.48;;;;;;;;;;5034294;28;20013;-53
2022/02/02 23:55:25;;;;;;;40.95;19.70;;;;;;;;;;5068640;28;20036;-58
